createdAt,value
2018-03-28T00:01:24.099Z,67.02
2018-03-28T00:03:49.892Z,66.59
2018-03-28T00:06:15.702Z,65.91
2018-03-28T00:08:41.495Z,69.03
2018-03-28T00:11:07.294Z,68.10
2018-03-28T00:13:33.107Z,69.64
2018-03-28T00:15:58.890Z,65.58
2018-03-28T00:18:24.669Z,66.35
2018-03-28T00:20:50.487Z,70.07
2018-03-28T00:23:16.290Z,69.56
2018-03-28T00:25:42.076Z,68.72
2018-03-28T00:28:07.976Z,66.15
2018-03-28T00:30:33.779Z,68.04
2018-03-28T00:32:59.558Z,66.39
2018-03-28T00:35:25.367Z,66.54
2018-03-28T00:37:51.186Z,66.21
2018-03-28T00:40:16.969Z,68.07
2018-03-28T00:42:42.762Z,70.29
2018-03-28T00:45:08.543Z,68.76
2018-03-28T00:47:35.193Z,68.61
2018-03-28T00:50:01.000Z,68.05
2018-03-28T00:52:26.795Z,69.03
2018-03-28T00:54:52.594Z,68.96
2018-03-28T00:57:18.390Z,66.51
2018-03-28T00:59:44.175Z,66.85
2018-03-28T01:02:09.960Z,69.05
2018-03-28T01:04:36.031Z,69.64
2018-03-28T01:07:01.843Z,66.69
2018-03-28T01:09:27.635Z,67.66
2018-03-28T01:11:53.442Z,67.87
2018-03-28T01:14:19.228Z,68.21
2018-03-28T01:16:45.019Z,68.57
2018-03-28T01:19:10.949Z,68.11
2018-03-28T01:21:36.766Z,68.83
2018-03-28T01:24:02.557Z,68.63
2018-03-28T01:26:28.362Z,70.62
2018-03-28T01:28:54.130Z,66.91
2018-03-28T01:31:19.918Z,69.28
2018-03-28T01:33:45.722Z,67.82
2018-03-28T01:36:11.512Z,68.62
2018-03-28T01:38:37.323Z,72.04
2018-03-28T01:41:03.126Z,68.64
2018-03-28T01:43:28.923Z,70.83
2018-03-28T01:45:54.752Z,70.46
2018-03-28T01:48:20.554Z,67.83
2018-03-28T01:50:46.348Z,68.08
2018-03-28T01:53:12.154Z,68.83
2018-03-28T01:55:37.947Z,67.75
2018-03-28T01:58:03.764Z,67.99
2018-03-28T02:00:29.577Z,69.44
2018-03-28T02:02:55.368Z,70.04
2018-03-28T02:05:21.160Z,69.19
2018-03-28T02:07:46.967Z,68.89
2018-03-28T02:10:12.768Z,68.43
2018-03-28T02:12:38.554Z,69.96
2018-03-28T02:15:04.376Z,71.09
2018-03-28T02:17:30.177Z,69.45
2018-03-28T02:19:55.968Z,69.76
2018-03-28T02:22:21.760Z,69.07
2018-03-28T02:24:47.547Z,68.77
2018-03-28T02:27:13.339Z,68.33
2018-03-28T02:29:39.182Z,68.06
2018-03-28T02:32:04.985Z,68.81
2018-03-28T02:34:30.806Z,68.73
2018-03-28T02:36:56.611Z,69.14
2018-03-28T02:39:22.431Z,69.14
2018-03-28T02:41:48.238Z,69.33
2018-03-28T02:44:14.035Z,69.74
2018-03-28T02:46:39.841Z,68.25
2018-03-28T02:49:05.642Z,71.11
2018-03-28T02:51:31.444Z,69.80
2018-03-28T02:53:57.317Z,68.17
2018-03-28T02:56:23.108Z,69.24
2018-03-28T02:58:48.902Z,68.08
2018-03-28T03:01:14.726Z,69.74
2018-03-28T03:03:40.517Z,68.18
2018-03-28T03:06:06.325Z,69.98
2018-03-28T03:08:32.368Z,69.99
2018-03-28T03:10:58.448Z,70.04
2018-03-28T03:13:24.243Z,68.00
2018-03-28T03:15:50.079Z,66.75
2018-03-28T03:18:15.875Z,70.27
2018-03-28T03:20:41.685Z,69.29
2018-03-28T03:23:07.527Z,68.29
2018-03-28T03:25:33.325Z,70.63
2018-03-28T03:27:59.131Z,67.97
2018-03-28T03:30:24.927Z,72.01
2018-03-28T03:32:50.762Z,69.10
2018-03-28T03:35:16.559Z,70.09
2018-03-28T03:37:42.354Z,69.19
2018-03-28T03:40:08.169Z,69.17
2018-03-28T03:42:33.985Z,72.54
2018-03-28T03:44:59.754Z,71.58
2018-03-28T03:47:25.544Z,71.40
2018-03-28T03:49:51.327Z,72.64
2018-03-28T03:52:17.111Z,73.54
2018-03-28T03:54:43.087Z,73.24
2018-03-28T03:57:08.894Z,75.48
2018-03-28T03:59:34.690Z,75.86
2018-03-28T04:02:00.556Z,77.52
2018-03-28T04:04:26.366Z,76.21
2018-03-28T04:06:52.143Z,76.45
2018-03-28T04:09:17.962Z,77.03
2018-03-28T04:11:43.750Z,76.71
2018-03-28T04:14:09.527Z,77.92
2018-03-28T04:16:35.594Z,77.96
2018-03-28T04:19:01.395Z,78.02
2018-03-28T04:21:27.184Z,78.90
2018-03-28T04:23:53.023Z,78.34
2018-03-28T04:26:18.837Z,79.08
2018-03-28T04:28:44.764Z,80.15
2018-03-28T04:31:10.564Z,80.64
2018-03-28T04:33:36.352Z,81.65
2018-03-28T04:36:02.159Z,80.77
2018-03-28T04:38:33.223Z,82.86
2018-03-28T04:40:59.093Z,82.99
2018-03-28T04:43:24.910Z,81.51
2018-03-28T04:45:50.711Z,81.45
2018-03-28T04:48:16.536Z,83.16
2018-03-28T04:50:42.323Z,80.96
2018-03-28T04:53:08.096Z,82.97
2018-03-28T04:55:33.898Z,83.54
2018-03-28T04:57:59.692Z,81.91
2018-03-28T05:00:25.487Z,81.72
2018-03-28T05:02:51.971Z,82.83
2018-03-28T05:05:18.052Z,84.29
2018-03-28T05:07:43.851Z,83.65
2018-03-28T05:10:09.649Z,84.00
2018-03-28T05:12:35.440Z,85.08
2018-03-28T05:15:01.226Z,85.28
2018-03-28T05:17:27.016Z,86.25
2018-03-28T05:19:52.823Z,87.13
2018-03-28T05:22:18.657Z,85.61
2018-03-28T05:24:44.451Z,84.95
2018-03-28T05:27:10.276Z,85.98
2018-03-28T05:29:36.072Z,85.50
2018-03-28T05:32:01.855Z,86.19
2018-03-28T05:34:27.671Z,86.92
2018-03-28T05:36:53.464Z,85.62
2018-03-28T05:39:19.260Z,85.51
2018-03-28T05:41:45.071Z,87.11
2018-03-28T05:44:10.865Z,87.61
2018-03-28T05:46:36.656Z,88.17
2018-03-28T05:49:02.499Z,85.93
2018-03-28T05:51:28.297Z,85.59
2018-03-28T05:53:54.091Z,88.34
2018-03-28T05:56:19.948Z,87.76
2018-03-28T05:58:45.732Z,87.81
2018-03-28T06:01:11.536Z,88.09
2018-03-28T06:03:37.362Z,88.28
2018-03-28T06:06:03.178Z,91.42
2018-03-28T06:08:28.970Z,87.42
2018-03-28T06:10:54.767Z,89.23
2018-03-28T06:13:20.553Z,88.69
2018-03-28T06:15:46.332Z,88.54
2018-03-28T06:18:12.148Z,87.87
2018-03-28T06:20:37.942Z,88.52
2018-03-28T06:23:03.750Z,88.20
2018-03-28T06:25:29.562Z,87.93
2018-03-28T06:27:55.339Z,87.78
2018-03-28T06:30:21.155Z,87.25
2018-03-28T06:32:46.963Z,88.34
2018-03-28T06:35:12.738Z,89.27
2018-03-28T06:37:38.532Z,90.59
2018-03-28T06:40:04.376Z,88.47
2018-03-28T06:42:30.224Z,90.19
2018-03-28T06:44:56.007Z,90.63
2018-03-28T06:47:22.377Z,88.92
2018-03-28T06:49:48.142Z,89.33
2018-03-28T06:52:13.929Z,90.03
2018-03-28T06:54:39.751Z,89.44
2018-03-28T06:57:05.573Z,88.50
2018-03-28T06:59:31.373Z,88.87
2018-03-28T07:01:57.199Z,89.12
2018-03-28T07:04:23.021Z,88.85
2018-03-28T07:06:48.820Z,87.73
2018-03-28T07:09:14.623Z,87.82
2018-03-28T07:11:40.417Z,86.74
2018-03-28T07:14:06.271Z,87.15
2018-03-28T07:16:32.067Z,87.81
2018-03-28T07:18:57.875Z,87.84
2018-03-28T07:21:23.704Z,87.09
2018-03-28T07:23:49.494Z,86.75
2018-03-28T07:26:15.282Z,88.13
2018-03-28T07:28:41.060Z,88.40
2018-03-28T07:31:07.250Z,87.24
2018-03-28T07:33:33.311Z,87.69
2018-03-28T07:35:59.102Z,87.58
2018-03-28T07:38:25.011Z,87.91
2018-03-28T07:40:51.171Z,87.98
2018-03-28T07:43:16.958Z,88.00
2018-03-28T07:45:42.752Z,88.19
2018-03-28T07:48:08.612Z,88.91
2018-03-28T07:50:34.415Z,88.92
2018-03-28T07:53:00.207Z,88.78
2018-03-28T07:55:26.045Z,88.50
2018-03-28T07:57:51.839Z,89.42
2018-03-28T08:00:17.649Z,88.12
2018-03-28T08:02:43.452Z,88.58
2018-03-28T08:05:09.250Z,89.23
2018-03-28T08:07:35.053Z,88.93
2018-03-28T08:10:00.859Z,88.94
2018-03-28T08:12:26.663Z,85.87
2018-03-28T08:14:52.450Z,85.88
2018-03-28T08:17:18.267Z,85.81
2018-03-28T08:19:44.052Z,85.34
2018-03-28T08:22:09.893Z,83.95
2018-03-28T08:24:35.623Z,84.18
2018-03-28T08:27:01.416Z,84.72
2018-03-28T08:29:27.235Z,83.70
2018-03-28T08:31:53.014Z,84.91
2018-03-28T08:34:18.807Z,82.53
2018-03-28T08:36:44.693Z,84.18
2018-03-28T08:39:10.480Z,85.20
2018-03-28T08:41:36.288Z,85.88
2018-03-28T08:44:02.354Z,86.57
2018-03-28T08:46:28.144Z,86.14
2018-03-28T08:48:53.919Z,86.27
2018-03-28T08:51:19.712Z,86.57
2018-03-28T08:53:45.496Z,85.47
2018-03-28T08:56:11.554Z,85.21
2018-03-28T08:58:37.356Z,85.38
2018-03-28T09:01:03.163Z,85.08
2018-03-28T09:03:29.015Z,85.38
2018-03-28T09:05:54.816Z,83.63
2018-03-28T09:08:20.598Z,84.60
2018-03-28T09:10:46.396Z,84.58
2018-03-28T09:13:12.475Z,84.82
2018-03-28T09:15:38.263Z,84.93
2018-03-28T09:18:04.075Z,85.28
2018-03-28T09:20:30.135Z,84.84
2018-03-28T09:22:55.919Z,85.50
2018-03-28T09:25:21.712Z,84.41
2018-03-28T09:27:47.523Z,84.81
2018-03-28T09:30:13.309Z,84.87
2018-03-28T09:32:39.091Z,85.07
2018-03-28T09:35:04.920Z,84.14
2018-03-28T09:37:30.723Z,84.30
2018-03-28T09:39:56.655Z,83.87
2018-03-28T09:42:23.006Z,83.75
2018-03-28T09:44:48.801Z,83.42
2018-03-28T09:47:14.586Z,83.22
2018-03-28T09:49:40.394Z,83.28
2018-03-28T09:52:06.190Z,83.05
2018-03-28T09:54:31.975Z,83.40
2018-03-28T09:56:58.144Z,83.00
2018-03-28T09:59:23.937Z,83.60
2018-03-28T10:01:55.810Z,85.69
2018-03-28T10:04:21.632Z,80.95
2018-03-28T10:06:47.451Z,81.57
2018-03-28T10:09:13.285Z,81.86
2018-03-28T10:11:39.023Z,81.96
2018-03-28T10:14:04.843Z,82.33
2018-03-28T10:16:30.635Z,82.02
2018-03-28T10:18:56.434Z,82.29
2018-03-28T10:21:22.253Z,83.02
2018-03-28T10:23:48.048Z,82.43
2018-03-28T10:26:13.837Z,82.07
2018-03-28T10:28:39.902Z,82.92
2018-03-28T10:31:05.696Z,82.67
2018-03-28T10:33:31.511Z,82.97
2018-03-28T10:35:57.338Z,81.58
2018-03-28T10:38:23.147Z,82.45
2018-03-28T10:40:48.957Z,80.90
2018-03-28T10:43:14.888Z,81.18
2018-03-28T10:45:40.699Z,81.12
2018-03-28T10:48:06.519Z,80.83
2018-03-28T10:50:32.339Z,81.31
2018-03-28T10:52:58.124Z,80.36
2018-03-28T10:55:23.918Z,80.29
2018-03-28T10:57:49.755Z,80.93
2018-03-28T11:00:15.559Z,80.31
2018-03-28T11:02:41.419Z,80.38
2018-03-28T11:05:07.328Z,79.97
2018-03-28T11:07:33.182Z,80.59
2018-03-28T11:09:58.996Z,79.86
2018-03-28T11:12:24.829Z,79.69
2018-03-28T11:14:50.714Z,79.69
2018-03-28T11:17:16.562Z,79.85
2018-03-28T11:19:42.942Z,79.76
2018-03-28T11:22:08.826Z,80.24
2018-03-28T11:24:34.805Z,80.49
2018-03-28T11:27:00.615Z,81.22
2018-03-28T11:29:26.418Z,80.58
2018-03-28T11:31:53.052Z,80.98
2018-03-28T11:34:18.859Z,80.93
2018-03-28T11:36:46.076Z,81.95
2018-03-28T11:39:11.959Z,82.49
2018-03-28T11:41:38.884Z,81.44
2018-03-28T11:44:05.578Z,82.34
2018-03-28T11:46:31.461Z,81.70
2018-03-28T11:48:57.291Z,81.88
2018-03-28T11:51:23.104Z,82.89
2018-03-28T11:53:48.915Z,83.36
2018-03-28T11:56:14.740Z,83.30
2018-03-28T11:58:40.580Z,83.17
2018-03-28T12:01:07.705Z,83.20
2018-03-28T12:03:33.504Z,98.18
2018-03-28T12:05:59.308Z,82.60
2018-03-28T12:08:25.435Z,82.54
2018-03-28T12:10:51.284Z,78.96
2018-03-28T12:13:17.156Z,79.76
2018-03-28T12:15:42.986Z,80.65
2018-03-28T12:18:09.358Z,80.88
2018-03-28T12:20:35.215Z,81.11
2018-03-28T12:23:01.162Z,80.91
2018-03-28T12:25:27.485Z,80.90
2018-03-28T12:27:53.620Z,81.11
2018-03-28T12:30:19.447Z,79.97
2018-03-28T12:32:45.285Z,80.76
2018-03-28T12:35:11.113Z,80.01
2018-03-28T12:37:36.935Z,80.73
2018-03-28T12:40:02.770Z,81.67
2018-03-28T12:42:29.211Z,80.69
2018-03-28T12:44:55.615Z,81.38
2018-03-28T12:47:21.583Z,80.97
2018-03-28T12:49:47.584Z,81.72
2018-03-28T12:52:13.466Z,81.98
2018-03-28T12:54:39.228Z,81.69
2018-03-28T12:57:05.067Z,81.64
2018-03-28T12:59:31.262Z,81.55
2018-03-28T13:01:57.533Z,81.55
2018-03-28T13:04:23.375Z,81.90
2018-03-28T13:06:49.781Z,82.04
2018-03-28T13:09:15.722Z,82.23
2018-03-28T13:11:41.539Z,82.31
2018-03-28T13:14:07.364Z,81.70
2018-03-28T13:16:33.181Z,82.31
2018-03-28T13:18:59.621Z,82.24
2018-03-28T13:21:25.476Z,82.59
2018-03-28T13:23:51.288Z,82.93
2018-03-28T13:26:17.252Z,82.69
2018-03-28T13:28:43.168Z,83.00
2018-03-28T13:31:09.840Z,82.34
2018-03-28T13:33:35.675Z,83.04
2018-03-28T13:36:01.499Z,83.38
2018-03-28T13:38:27.307Z,84.18
2018-03-28T13:40:53.328Z,84.23
2018-03-28T13:43:19.139Z,84.88
2018-03-28T13:45:44.980Z,84.85
2018-03-28T13:48:10.769Z,88.30
2018-03-28T13:50:36.579Z,85.18
2018-03-28T13:53:03.056Z,86.63
2018-03-28T13:55:29.117Z,87.62
2018-03-28T13:57:54.959Z,88.10
2018-03-28T14:00:21.311Z,87.99
2018-03-28T14:02:47.301Z,88.43
2018-03-28T14:05:13.090Z,88.64
2018-03-28T14:07:38.935Z,88.79
2018-03-28T14:10:05.293Z,89.45
2018-03-28T14:12:31.182Z,89.79
2018-03-28T14:14:57.039Z,90.36
2018-03-28T14:17:24.187Z,89.84
2018-03-28T14:19:50.011Z,90.06
2018-03-28T14:22:15.831Z,89.56
2018-03-28T14:24:42.148Z,90.70
2018-03-28T14:27:07.983Z,90.84
2018-03-28T14:29:34.347Z,91.33
2018-03-28T14:32:00.190Z,91.03
2018-03-28T14:34:25.978Z,90.95
2018-03-28T14:36:51.775Z,95.48
2018-03-28T14:39:17.607Z,88.36
2018-03-28T14:41:43.436Z,90.38
2018-03-28T14:44:09.232Z,91.13
2018-03-28T14:46:35.055Z,91.11
2018-03-28T14:49:00.903Z,91.53
2018-03-28T14:51:26.713Z,92.12
2018-03-28T14:53:53.076Z,92.37
2018-03-28T14:56:18.887Z,92.27
2018-03-28T14:58:44.808Z,92.56
2018-03-28T15:01:10.618Z,92.76
2018-03-28T15:03:36.436Z,92.44
2018-03-28T15:06:02.475Z,92.93
2018-03-28T15:08:28.264Z,93.19
2018-03-28T15:10:54.085Z,93.74
2018-03-28T15:13:19.900Z,93.92
2018-03-28T15:15:45.690Z,94.23
2018-03-28T15:18:11.495Z,94.19
2018-03-28T15:20:37.337Z,94.36
2018-03-28T15:23:03.135Z,94.44
2018-03-28T15:25:28.941Z,99.66
2018-03-28T15:27:54.755Z,93.30
2018-03-28T15:30:20.567Z,91.23
2018-03-28T15:32:46.370Z,92.38
2018-03-28T15:35:12.172Z,93.64
2018-03-28T15:37:37.973Z,93.54
2018-03-28T15:40:03.772Z,93.93
2018-03-28T15:42:29.618Z,94.15
2018-03-28T15:44:55.460Z,94.45
2018-03-28T15:47:21.263Z,94.20
2018-03-28T15:49:47.068Z,95.02
2018-03-28T15:52:12.941Z,92.98
2018-03-28T15:54:38.750Z,92.97
2018-03-28T15:57:04.547Z,93.05
2018-03-28T15:59:30.371Z,92.78
2018-03-28T16:01:56.202Z,92.36
2018-03-28T16:04:22.022Z,91.97
2018-03-28T16:06:47.815Z,92.10
2018-03-28T16:09:13.594Z,91.54
2018-03-28T16:11:39.574Z,91.51
2018-03-28T16:14:05.378Z,92.56
2018-03-28T16:16:31.164Z,92.97
2018-03-28T16:18:57.000Z,92.01
2018-03-28T16:21:22.794Z,93.42
2018-03-28T16:23:48.595Z,92.91
2018-03-28T16:26:14.401Z,89.57
2018-03-28T16:28:40.199Z,88.93
2018-03-28T16:31:06.018Z,89.72
2018-03-28T16:33:31.809Z,91.23
2018-03-28T16:35:57.598Z,91.99
2018-03-28T16:38:23.399Z,92.77
2018-03-28T16:40:49.195Z,93.09
2018-03-28T16:43:14.991Z,93.16
2018-03-28T16:45:40.814Z,92.95
2018-03-28T16:48:06.674Z,92.83
2018-03-28T16:50:32.487Z,93.25
2018-03-28T16:52:58.275Z,93.46
2018-03-28T16:55:24.135Z,94.47
2018-03-28T16:57:49.878Z,95.15
2018-03-28T17:00:15.699Z,95.13
2018-03-28T17:02:41.811Z,95.63
2018-03-28T17:05:07.588Z,96.11
2018-03-28T17:07:33.387Z,96.48
2018-03-28T17:09:59.485Z,96.45
2018-03-28T17:12:25.266Z,96.96
2018-03-28T17:14:51.079Z,97.16
2018-03-28T17:17:16.893Z,97.06
2018-03-28T17:19:42.677Z,96.95
2018-03-28T17:22:08.479Z,97.08
2018-03-28T17:24:34.275Z,97.28
2018-03-28T17:27:00.095Z,97.51
2018-03-28T17:29:25.905Z,97.34
2018-03-28T17:31:51.686Z,97.33
2018-03-28T17:34:17.671Z,97.41
2018-03-28T17:36:43.499Z,97.76
2018-03-28T17:39:09.312Z,98.03
2018-03-28T17:41:35.144Z,98.13
2018-03-28T17:44:00.904Z,97.97
2018-03-28T17:46:26.719Z,98.01
2018-03-28T17:48:52.578Z,97.97
2018-03-28T17:51:18.396Z,98.50
2018-03-28T17:53:44.521Z,98.30
2018-03-28T17:56:10.311Z,100.00
2018-03-28T17:58:36.101Z,94.50
2018-03-28T18:01:01.924Z,96.15
2018-03-28T18:03:27.719Z,97.03
2018-03-28T18:05:53.551Z,97.49
2018-03-28T18:08:19.344Z,97.62
2018-03-28T18:10:45.153Z,97.91
2018-03-28T18:13:11.272Z,98.17
2018-03-28T18:15:37.081Z,98.31
2018-03-28T18:18:02.887Z,98.34
2018-03-28T18:20:28.699Z,98.65
2018-03-28T18:22:54.475Z,98.57
2018-03-28T18:25:20.271Z,98.63
2018-03-28T18:27:46.285Z,98.85
2018-03-28T18:30:12.075Z,98.77
2018-03-28T18:32:37.870Z,98.56
2018-03-28T18:35:03.707Z,98.54
2018-03-28T18:37:29.495Z,99.14
2018-03-28T18:39:55.301Z,99.28
2018-03-28T18:42:21.155Z,99.30
2018-03-28T18:44:46.960Z,99.50
2018-03-28T18:47:12.771Z,99.49
2018-03-28T18:49:38.567Z,99.50
2018-03-28T18:52:04.390Z,99.28
2018-03-28T18:54:30.207Z,99.41
2018-03-28T18:56:56.021Z,99.34
2018-03-28T18:59:21.830Z,99.32
2018-03-28T19:01:47.628Z,99.39
2018-03-28T19:04:13.450Z,99.33
2018-03-28T19:06:39.232Z,99.25
2018-03-28T19:09:05.063Z,99.79
2018-03-28T19:11:30.877Z,100.00
2018-03-28T19:13:56.663Z,100.00
2018-03-28T19:16:22.450Z,100.00
2018-03-28T19:18:48.272Z,100.00
2018-03-28T19:21:14.412Z,96.01
2018-03-28T19:23:40.178Z,99.49
2018-03-28T19:26:05.985Z,99.30
2018-03-28T19:28:31.798Z,98.92
2018-03-28T19:30:57.618Z,96.78
2018-03-28T19:33:23.407Z,97.51
2018-03-28T19:35:49.227Z,98.16
2018-03-28T19:38:15.029Z,98.27
2018-03-28T19:40:40.827Z,98.38
2018-03-28T19:43:06.645Z,98.51
2018-03-28T19:45:32.454Z,98.98
2018-03-28T19:47:58.257Z,99.28
2018-03-28T19:50:24.311Z,100.00
2018-03-28T19:52:50.094Z,96.08
2018-03-28T19:55:15.883Z,92.03
2018-03-28T19:57:41.690Z,87.97
2018-03-28T20:00:07.568Z,87.79
2018-03-28T20:02:33.359Z,88.06
2018-03-28T20:04:59.169Z,87.14
2018-03-28T20:07:24.960Z,84.87
2018-03-28T20:09:50.755Z,89.35
2018-03-28T20:12:16.584Z,93.07
2018-03-28T20:14:42.369Z,94.26
2018-03-28T20:17:08.153Z,95.44
2018-03-28T20:19:33.963Z,96.55
2018-03-28T20:21:59.761Z,97.24
2018-03-28T20:24:25.552Z,97.76
2018-03-28T20:26:51.361Z,98.27
2018-03-28T20:29:17.140Z,98.61
2018-03-28T20:31:42.947Z,98.68
2018-03-28T20:34:08.763Z,100.00
2018-03-28T20:36:34.571Z,92.05
2018-03-28T20:39:00.383Z,94.20
2018-03-28T20:41:26.212Z,96.52
2018-03-28T20:43:52.012Z,97.15
2018-03-28T20:46:17.808Z,97.89
2018-03-28T20:48:43.849Z,98.08
2018-03-28T20:51:09.636Z,98.72
2018-03-28T20:53:35.432Z,98.56
2018-03-28T20:56:01.249Z,98.90
2018-03-28T20:58:27.084Z,99.07
2018-03-28T21:00:52.912Z,99.32
2018-03-28T21:03:18.718Z,99.43
2018-03-28T21:05:44.532Z,99.43
2018-03-28T21:08:10.340Z,99.48
2018-03-28T21:10:36.163Z,99.68
2018-03-28T21:13:01.959Z,99.82
2018-03-28T21:15:27.752Z,100.00
2018-03-28T21:17:53.564Z,100.00
2018-03-28T21:20:19.360Z,100.00
2018-03-28T21:22:45.165Z,100.00
2018-03-28T21:25:10.967Z,100.00
2018-03-28T21:27:36.776Z,100.00
2018-03-28T21:30:02.598Z,100.00
2018-03-28T21:32:28.679Z,99.96
2018-03-28T21:34:54.479Z,100.00
2018-03-28T21:37:20.274Z,100.00
2018-03-28T21:39:46.083Z,100.00
2018-03-28T21:42:11.883Z,100.00
2018-03-28T21:44:37.669Z,100.00
2018-03-28T21:47:03.486Z,100.00
2018-03-28T21:49:29.267Z,100.00
2018-03-28T21:51:55.060Z,100.00
2018-03-28T21:54:21.248Z,100.00
2018-03-28T21:56:47.046Z,100.00
2018-03-28T21:59:12.860Z,100.00
2018-03-28T22:01:38.686Z,100.00
2018-03-28T22:04:04.517Z,100.00
2018-03-28T22:06:30.312Z,100.00
2018-03-28T22:08:56.110Z,100.00
2018-03-28T22:11:21.923Z,100.00
2018-03-28T22:13:47.722Z,100.00
2018-03-28T22:16:13.524Z,100.00
2018-03-28T22:18:39.355Z,100.00
2018-03-28T22:21:05.151Z,100.00
2018-03-28T22:23:30.963Z,100.00
2018-03-28T22:25:56.855Z,99.35
2018-03-28T22:28:22.638Z,99.53
2018-03-28T22:30:48.435Z,99.69
2018-03-28T22:33:14.227Z,99.78
2018-03-28T22:35:40.039Z,99.46
2018-03-28T22:38:05.843Z,98.95
2018-03-28T22:40:31.632Z,99.81
2018-03-28T22:42:57.441Z,99.76
2018-03-28T22:45:23.266Z,100.00
2018-03-28T22:47:49.066Z,99.08
2018-03-28T22:50:14.889Z,99.41
2018-03-28T22:52:40.711Z,99.33
2018-03-28T22:55:06.510Z,99.82
2018-03-28T22:57:32.286Z,99.05
2018-03-28T22:59:58.116Z,100.00
2018-03-28T23:02:23.916Z,99.23
2018-03-28T23:04:49.704Z,100.00
2018-03-28T23:07:15.518Z,99.30
2018-03-28T23:09:41.343Z,99.14
2018-03-28T23:12:07.145Z,98.62
2018-03-28T23:14:32.942Z,98.69
2018-03-28T23:16:58.744Z,99.34
2018-03-28T23:19:24.542Z,99.31
2018-03-28T23:21:50.336Z,98.36
2018-03-28T23:24:16.140Z,99.16
2018-03-28T23:26:42.230Z,99.72
2018-03-28T23:29:08.018Z,98.65
2018-03-28T23:31:33.806Z,98.96
2018-03-28T23:33:59.607Z,99.47
2018-03-28T23:36:25.405Z,98.98
2018-03-28T23:38:51.183Z,98.26
2018-03-28T23:41:16.980Z,99.59
2018-03-28T23:43:42.790Z,98.85
2018-03-28T23:46:08.587Z,96.66
2018-03-28T23:48:34.384Z,97.42
2018-03-28T23:51:00.421Z,98.02
2018-03-28T23:53:26.199Z,97.66
2018-03-28T23:55:51.986Z,98.07
2018-03-28T23:58:18.187Z,98.09
